createdAt,value
2023-02-13T00:00:26.341Z,20.67
2023-02-13T00:06:29.756Z,20.58
2023-02-13T00:12:33.159Z,20.23
2023-02-13T00:18:39.078Z,18.80
2023-02-13T00:24:42.717Z,19.55
2023-02-13T00:30:46.172Z,20.33
2023-02-13T00:36:50.973Z,20.20
2023-02-13T00:42:54.360Z,21.50
2023-02-13T00:48:57.746Z,20.08
2023-02-13T00:55:02.651Z,22.88
2023-02-13T01:01:06.299Z,21.17
2023-02-13T01:07:09.693Z,21.83
2023-02-13T01:13:14.703Z,21.55
2023-02-13T01:19:18.565Z,22.42
2023-02-13T01:25:21.986Z,22.58
2023-02-13T01:31:27.317Z,21.98
2023-02-13T01:37:30.786Z,24.13
2023-02-13T01:43:47.634Z,22.48
2023-02-13T01:49:56.184Z,24.17
2023-02-13T01:56:01.348Z,25.42
2023-02-13T02:02:05.057Z,25.23
2023-02-13T02:08:11.497Z,23.70
2023-02-13T02:14:14.883Z,24.95
2023-02-13T02:20:26.183Z,24.70
2023-02-13T02:26:40.515Z,25.50
2023-02-13T02:32:51.068Z,23.92
2023-02-13T02:39:03.599Z,25.20
2023-02-13T02:45:10.571Z,24.55
2023-02-13T02:51:20.134Z,24.90
2023-02-13T02:57:25.478Z,26.08
2023-02-13T03:03:47.004Z,24.85
2023-02-13T03:10:10.876Z,24.70
2023-02-13T03:16:35.679Z,25.85
2023-02-13T03:22:43.862Z,25.25
2023-02-13T03:29:06.977Z,25.08
2023-02-13T03:35:35.653Z,25.05
2023-02-13T03:41:40.887Z,25.75
2023-02-13T03:47:47.354Z,26.13
2023-02-13T03:53:53.823Z,27.38
2023-02-13T03:59:57.848Z,26.17
2023-02-13T04:06:04.368Z,26.75
2023-02-13T04:12:11.395Z,25.65
2023-02-13T04:18:17.090Z,25.23
2023-02-13T04:24:22.137Z,25.23
2023-02-13T04:30:25.772Z,26.30
2023-02-13T04:36:29.227Z,25.85
2023-02-13T04:42:34.206Z,26.45
2023-02-13T04:48:38.869Z,28.23
2023-02-13T04:54:42.379Z,28.67
2023-02-13T05:00:47.156Z,26.90
2023-02-13T05:06:50.648Z,27.48
2023-02-13T05:12:54.282Z,26.98
2023-02-13T05:18:59.229Z,26.40
2023-02-13T05:25:02.851Z,27.30
2023-02-13T05:31:07.268Z,27.52
2023-02-13T05:37:12.087Z,28.45
2023-02-13T05:43:15.872Z,27.73
2023-02-13T05:49:19.502Z,26.45
2023-02-13T05:55:24.354Z,28.65
2023-02-13T06:01:27.810Z,26.63
2023-02-13T06:07:31.255Z,26.38
2023-02-13T06:13:36.004Z,27.58
2023-02-13T06:19:39.478Z,27.23
2023-02-13T06:25:42.919Z,26.90
2023-02-13T06:31:47.734Z,27.17
2023-02-13T06:37:51.261Z,27.88
2023-02-13T06:43:55.058Z,29.13
2023-02-13T06:49:59.836Z,28.13
2023-02-13T06:56:05.885Z,27.52
2023-02-13T07:02:10.924Z,28.10
2023-02-13T07:08:15.725Z,27.40
2023-02-13T07:14:19.190Z,29.55
2023-02-13T07:20:22.676Z,27.65
2023-02-13T07:26:27.653Z,29.02
2023-02-13T07:32:31.072Z,27.90
2023-02-13T07:38:34.775Z,27.63
2023-02-13T07:44:39.761Z,27.40
2023-02-13T07:50:43.627Z,28.45
2023-02-13T07:56:47.022Z,27.00
2023-02-13T08:02:51.835Z,27.50
2023-02-13T08:09:15.259Z,26.88
2023-02-13T08:15:18.832Z,26.58
2023-02-13T08:21:23.622Z,24.75
2023-02-13T08:27:28.098Z,25.95
2023-02-13T08:33:32.099Z,24.17
2023-02-13T08:39:37.364Z,24.08
2023-02-13T08:45:40.848Z,24.30
2023-02-13T08:51:44.279Z,24.60
2023-02-13T08:57:49.234Z,27.38
2023-02-13T09:03:52.849Z,26.60
2023-02-13T09:09:57.657Z,26.95
2023-02-13T09:16:05.166Z,25.63
2023-02-13T09:22:08.912Z,29.17
2023-02-13T09:28:12.418Z,24.98
2023-02-13T09:34:17.294Z,25.25
2023-02-13T09:40:24.761Z,25.35
2023-02-13T09:46:31.731Z,24.27
2023-02-13T09:52:37.536Z,21.60
2023-02-13T09:58:43.751Z,22.40
2023-02-13T10:04:50.256Z,22.23
2023-02-13T10:10:58.685Z,21.58
2023-02-13T10:17:04.285Z,18.85
2023-02-13T10:23:14.525Z,17.83
2023-02-13T10:29:45.563Z,17.73
2023-02-13T10:35:52.209Z,18.50
2023-02-13T10:41:58.002Z,17.80
2023-02-13T10:48:09.009Z,18.15
2023-02-13T10:54:20.393Z,16.02
2023-02-13T11:00:27.856Z,17.13
2023-02-13T11:06:32.749Z,17.45
2023-02-13T11:12:36.422Z,17.20
2023-02-13T11:18:41.452Z,16.70
2023-02-13T11:24:53.997Z,16.80
2023-02-13T11:31:10.483Z,16.77
2023-02-13T11:37:18.867Z,17.38
2023-02-13T11:43:27.323Z,17.65
2023-02-13T11:49:32.638Z,17.15
2023-02-13T11:55:38.185Z,17.67
2023-02-13T12:01:43.002Z,16.83
2023-02-13T12:07:46.779Z,17.08
2023-02-13T12:13:50.719Z,15.73
2023-02-13T12:19:56.349Z,17.98
2023-02-13T12:26:12.833Z,16.77
2023-02-13T12:32:19.821Z,18.00
2023-02-13T12:38:33.039Z,18.40
2023-02-13T12:44:46.413Z,17.30
2023-02-13T12:51:07.495Z,17.70
2023-02-13T12:57:21.699Z,17.95
2023-02-13T13:03:37.537Z,18.17
2023-02-13T13:09:46.793Z,18.30
2023-02-13T13:15:55.414Z,18.48
2023-02-13T13:22:02.637Z,17.83
2023-02-13T13:28:10.758Z,18.30
2023-02-13T13:34:20.810Z,18.13
2023-02-13T13:40:31.165Z,18.45
2023-02-13T13:46:38.790Z,17.90
2023-02-13T13:53:04.041Z,18.25
2023-02-13T13:59:18.251Z,17.98
2023-02-13T14:05:24.599Z,19.90
2023-02-13T14:11:30.923Z,18.33
2023-02-13T14:17:53.087Z,19.30
2023-02-13T14:24:00.756Z,18.45
2023-02-13T14:30:07.261Z,18.38
2023-02-13T14:36:19.406Z,18.73
2023-02-13T14:42:28.414Z,18.52
2023-02-13T14:48:38.299Z,19.23
2023-02-13T14:54:47.243Z,18.73
2023-02-13T15:00:54.499Z,17.80
2023-02-13T15:06:59.896Z,19.77
2023-02-13T15:13:03.936Z,18.63
2023-02-13T15:19:07.322Z,18.02
2023-02-13T15:25:25.836Z,19.27
2023-02-13T15:31:33.326Z,19.02
2023-02-13T15:37:36.885Z,17.83
2023-02-13T15:43:43.064Z,20.00
2023-02-13T15:49:48.091Z,19.52
2023-02-13T15:55:58.188Z,19.77
2023-02-13T16:02:03.699Z,19.52
2023-02-13T16:08:26.541Z,20.50
2023-02-13T16:14:31.811Z,19.70
2023-02-13T16:20:38.450Z,18.58
2023-02-13T16:26:44.235Z,19.55
2023-02-13T16:32:47.650Z,19.10
2023-02-13T16:38:52.405Z,18.52
2023-02-13T16:45:10.734Z,18.92
2023-02-13T16:51:14.463Z,19.90
2023-02-13T16:57:27.411Z,20.65
2023-02-13T17:03:31.062Z,19.77
2023-02-13T17:09:34.460Z,19.55
2023-02-13T17:15:39.452Z,20.23
2023-02-13T17:21:43.345Z,19.30
2023-02-13T17:27:46.910Z,19.90
2023-02-13T17:33:51.683Z,20.65
2023-02-13T17:39:55.895Z,20.05
2023-02-13T17:46:01.246Z,19.65
2023-02-13T17:52:06.478Z,19.90
2023-02-13T17:58:09.936Z,20.10
2023-02-13T18:04:13.521Z,23.95
2023-02-13T18:10:20.660Z,23.42
2023-02-13T18:16:25.393Z,22.70
2023-02-13T18:22:28.885Z,21.80
2023-02-13T18:28:33.661Z,24.67
2023-02-13T18:34:37.255Z,22.73
2023-02-13T18:40:41.244Z,23.00
2023-02-13T18:46:46.054Z,24.13
2023-02-13T18:52:49.549Z,23.55
2023-02-13T18:58:53.094Z,24.42
2023-02-13T19:04:58.122Z,22.70
2023-02-13T19:11:02.640Z,24.88
2023-02-13T19:17:08.206Z,26.30
2023-02-13T19:23:12.991Z,35.10
2023-02-13T19:29:16.585Z,27.15
2023-02-13T19:35:19.994Z,26.83
2023-02-13T19:41:24.861Z,27.92
2023-02-13T19:47:28.350Z,28.02
2023-02-13T19:53:31.762Z,29.98
2023-02-13T19:59:37.065Z,30.50
2023-02-13T20:05:41.775Z,27.23
2023-02-13T20:11:45.481Z,27.63
2023-02-13T20:17:50.714Z,26.35
2023-02-13T20:23:54.203Z,27.00
2023-02-13T20:30:06.442Z,27.83
2023-02-13T20:36:13.652Z,25.73
2023-02-13T20:42:17.100Z,24.42
2023-02-13T20:48:20.732Z,24.70
2023-02-13T20:54:25.647Z,23.83
2023-02-13T21:00:29.411Z,26.90
2023-02-13T21:06:33.882Z,25.65
2023-02-13T21:12:38.662Z,23.40
2023-02-13T21:18:42.672Z,25.67
2023-02-13T21:24:46.120Z,27.35
2023-02-13T21:30:50.940Z,25.83
2023-02-13T21:36:54.388Z,24.50
2023-02-13T21:42:57.917Z,25.30
2023-02-13T21:49:03.739Z,24.98
2023-02-13T21:55:08.884Z,25.85
2023-02-13T22:01:25.112Z,26.42
2023-02-13T22:07:31.323Z,25.38
2023-02-13T22:13:34.709Z,26.80
2023-02-13T22:19:38.090Z,28.30
2023-02-13T22:25:48.830Z,28.15
2023-02-13T22:31:52.409Z,26.88
2023-02-13T22:37:55.956Z,27.38
2023-02-13T22:44:00.715Z,29.30
2023-02-13T22:50:04.208Z,28.13
2023-02-13T22:56:08.632Z,30.20
2023-02-13T23:02:13.502Z,28.17
2023-02-13T23:08:17.164Z,29.73
2023-02-13T23:14:23.846Z,29.65
2023-02-13T23:20:29.064Z,28.50
2023-02-13T23:26:32.439Z,27.55
2023-02-13T23:32:35.846Z,27.10
2023-02-13T23:38:40.595Z,27.20
2023-02-13T23:44:44.492Z,27.58
2023-02-13T23:50:51.058Z,26.75
2023-02-13T23:56:56.517Z,28.88
